createdAt,value
2023-04-13T00:00:21.836Z,8.30
2023-04-13T00:02:54.072Z,8.30
2023-04-13T00:05:21.770Z,8.30
2023-04-13T00:07:48.491Z,8.20
2023-04-13T00:10:19.129Z,8.20
2023-04-13T00:12:48.661Z,8.30
2023-04-13T00:15:16.340Z,8.10
2023-04-13T00:17:44.269Z,8.10
2023-04-13T00:20:14.885Z,8.10
2023-04-13T00:22:43.112Z,7.90
2023-04-13T00:25:11.638Z,8.00
2023-04-13T00:27:42.410Z,8.00
2023-04-13T00:30:14.445Z,8.00
2023-04-13T00:32:45.195Z,8.00
2023-04-13T00:35:15.653Z,7.90
2023-04-13T00:37:47.127Z,7.90
2023-04-13T00:40:15.932Z,7.90
2023-04-13T00:42:47.319Z,7.90
2023-04-13T00:45:14.798Z,7.80
2023-04-13T00:47:43.446Z,7.90
2023-04-13T00:50:10.370Z,7.80
2023-04-13T00:52:40.897Z,7.80
2023-04-13T00:55:07.879Z,7.70
2023-04-13T00:57:35.229Z,7.70
2023-04-13T01:00:06.511Z,7.70
2023-04-13T01:02:34.237Z,7.70
2023-04-13T01:05:02.235Z,7.60
2023-04-13T01:08:01.194Z,7.60
2023-04-13T01:10:42.244Z,7.50
2023-04-13T01:13:25.917Z,7.60
2023-04-13T01:16:05.122Z,7.60
2023-04-13T01:18:34.550Z,7.60
2023-04-13T01:21:04.574Z,7.60
2023-04-13T01:23:49.658Z,7.50
2023-04-13T01:26:17.158Z,7.40
2023-04-13T01:28:46.678Z,7.40
2023-04-13T01:31:14.389Z,7.30
2023-04-13T01:33:42.113Z,7.30
2023-04-13T01:36:11.280Z,7.30
2023-04-13T01:38:38.045Z,7.30
2023-04-13T01:41:04.958Z,7.30
2023-04-13T01:43:32.019Z,7.30
2023-04-13T01:46:06.578Z,7.30
2023-04-13T01:48:40.594Z,7.20
2023-04-13T01:51:19.570Z,7.30
2023-04-13T01:54:11.214Z,7.20
2023-04-13T01:56:40.167Z,7.10
2023-04-13T01:59:07.069Z,7.10
2023-04-13T02:01:33.837Z,7.10
2023-04-13T02:04:01.896Z,7.10
2023-04-13T02:06:29.309Z,7.00
2023-04-13T02:08:56.003Z,7.00
2023-04-13T02:11:22.685Z,7.00
2023-04-13T02:13:49.652Z,7.00
2023-04-13T02:16:16.344Z,6.90
2023-04-13T02:18:42.986Z,7.00
2023-04-13T02:21:09.776Z,7.00
2023-04-13T02:23:37.727Z,7.00
2023-04-13T02:26:06.879Z,7.00
2023-04-13T02:28:33.620Z,7.00
2023-04-13T02:31:00.407Z,7.00
2023-04-13T02:33:32.868Z,6.90
2023-04-13T02:36:02.186Z,7.00
2023-04-13T02:38:28.913Z,6.90
2023-04-13T02:40:57.105Z,7.00
2023-04-13T02:43:23.759Z,6.90
2023-04-13T02:45:50.425Z,7.00
2023-04-13T02:48:17.112Z,6.90
2023-04-13T02:50:43.757Z,6.90
2023-04-13T02:53:10.393Z,6.80
2023-04-13T02:55:37.662Z,6.80
2023-04-13T02:58:04.720Z,6.90
2023-04-13T03:00:32.945Z,6.90
2023-04-13T03:02:59.674Z,8.20
2023-04-13T03:05:26.908Z,6.80
2023-04-13T03:07:55.248Z,6.70
2023-04-13T03:10:22.673Z,6.70
2023-04-13T03:12:49.322Z,6.80
2023-04-13T03:15:18.163Z,6.80
2023-04-13T03:17:45.352Z,6.70
2023-04-13T03:20:13.371Z,6.90
2023-04-13T03:22:40.212Z,6.80
2023-04-13T03:25:08.389Z,6.80
2023-04-13T03:27:36.008Z,6.70
2023-04-13T03:30:03.911Z,6.70
2023-04-13T03:32:31.905Z,6.70
2023-04-13T03:34:59.064Z,6.60
2023-04-13T03:37:30.464Z,6.70
2023-04-13T03:39:58.161Z,6.60
2023-04-13T03:42:24.824Z,6.60
2023-04-13T03:44:51.468Z,6.60
2023-04-13T03:47:18.136Z,6.50
2023-04-13T03:49:44.768Z,6.60
2023-04-13T03:52:11.390Z,6.50
2023-04-13T03:54:38.090Z,6.50
2023-04-13T03:57:05.445Z,6.40
2023-04-13T03:59:32.060Z,6.50
2023-04-13T04:01:58.733Z,6.50
2023-04-13T04:04:25.541Z,6.50
2023-04-13T04:06:52.346Z,6.50
2023-04-13T04:09:19.004Z,6.50
2023-04-13T04:11:46.387Z,6.60
2023-04-13T04:14:12.955Z,6.50
2023-04-13T04:16:39.620Z,6.50
2023-04-13T04:19:06.477Z,6.50
2023-04-13T04:21:36.123Z,6.60
2023-04-13T04:24:06.149Z,6.50
2023-04-13T04:26:32.941Z,7.50
2023-04-13T04:29:01.912Z,6.50
2023-04-13T04:31:36.685Z,6.50
2023-04-13T04:34:04.488Z,6.50
2023-04-13T04:36:31.161Z,6.40
2023-04-13T04:39:02.333Z,6.50
2023-04-13T04:41:31.006Z,6.50
2023-04-13T04:44:03.478Z,6.50
2023-04-13T04:46:30.157Z,6.50
2023-04-13T04:49:00.717Z,6.50
2023-04-13T04:51:27.682Z,6.60
2023-04-13T04:53:55.052Z,6.60
2023-04-13T04:56:22.023Z,6.60
2023-04-13T04:58:48.796Z,6.70
2023-04-13T05:01:17.874Z,6.60
2023-04-13T05:03:44.936Z,6.60
2023-04-13T05:06:11.564Z,6.70
2023-04-13T05:08:38.341Z,6.70
2023-04-13T05:11:08.314Z,6.80
2023-04-13T05:13:34.981Z,6.70
2023-04-13T05:16:01.712Z,6.90
2023-04-13T05:18:31.599Z,6.90
2023-04-13T05:20:58.294Z,6.90
2023-04-13T05:23:25.543Z,7.00
2023-04-13T05:25:53.351Z,6.90
2023-04-13T05:28:21.750Z,7.00
2023-04-13T05:30:48.703Z,7.10
2023-04-13T05:33:16.984Z,7.10
2023-04-13T05:35:44.051Z,8.20
2023-04-13T05:38:10.709Z,7.20
2023-04-13T05:40:37.409Z,7.30
2023-04-13T05:43:04.156Z,7.60
2023-04-13T05:45:30.773Z,7.50
2023-04-13T05:47:57.506Z,7.60
2023-04-13T05:50:24.428Z,7.60
2023-04-13T05:52:51.024Z,7.80
2023-04-13T05:55:19.916Z,8.20
2023-04-13T05:57:46.505Z,8.50
2023-04-13T06:00:13.949Z,8.90
2023-04-13T06:02:41.747Z,9.40
2023-04-13T06:05:09.353Z,10.00
2023-04-13T06:07:36.960Z,9.60
2023-04-13T06:10:03.971Z,9.50
2023-04-13T06:12:30.570Z,9.40
2023-04-13T06:14:57.180Z,9.30
2023-04-13T06:17:24.282Z,9.10
2023-04-13T06:19:50.945Z,9.10
2023-04-13T06:22:17.547Z,9.00
2023-04-13T06:24:44.164Z,8.90
2023-04-13T06:27:11.180Z,8.60
2023-04-13T06:29:38.174Z,8.70
2023-04-13T06:32:04.984Z,8.60
2023-04-13T06:34:31.593Z,8.70
2023-04-13T06:36:58.216Z,8.80
2023-04-13T06:39:25.983Z,8.80
2023-04-13T06:41:54.496Z,8.80
2023-04-13T06:44:21.153Z,8.70
2023-04-13T06:46:48.009Z,8.70
2023-04-13T06:49:14.618Z,8.80
2023-04-13T06:51:41.373Z,8.80
2023-04-13T06:54:08.433Z,8.80
2023-04-13T06:56:35.060Z,8.90
2023-04-13T06:59:03.103Z,8.90
2023-04-13T07:01:30.238Z,9.00
2023-04-13T07:03:57.137Z,8.90
2023-04-13T07:06:23.890Z,9.00
2023-04-13T07:08:50.633Z,9.00
2023-04-13T07:11:17.299Z,9.10
2023-04-13T07:13:43.944Z,9.20
2023-04-13T07:16:11.892Z,9.20
2023-04-13T07:18:38.894Z,9.20
2023-04-13T07:21:07.101Z,9.20
2023-04-13T07:23:34.657Z,9.20
2023-04-13T07:26:01.499Z,9.50
2023-04-13T07:28:28.394Z,9.70
2023-04-13T07:30:55.017Z,9.80
2023-04-13T07:33:21.715Z,9.80
2023-04-13T07:35:50.239Z,9.80
2023-04-13T07:38:16.892Z,9.80
2023-04-13T07:40:43.554Z,9.90
2023-04-13T07:43:10.236Z,9.40
2023-04-13T07:45:36.867Z,10.10
2023-04-13T07:48:03.646Z,9.90
2023-04-13T07:50:30.399Z,10.00
2023-04-13T07:52:57.155Z,9.80
2023-04-13T07:55:23.897Z,9.60
2023-04-13T07:57:50.505Z,9.80
2023-04-13T08:00:20.360Z,9.80
2023-04-13T08:02:47.754Z,10.00
2023-04-13T08:05:14.969Z,10.00
2023-04-13T08:07:41.681Z,10.10
2023-04-13T08:10:09.122Z,10.30
2023-04-13T08:12:35.793Z,12.40
2023-04-13T08:15:02.606Z,9.70
2023-04-13T08:17:29.250Z,9.60
2023-04-13T08:19:55.881Z,9.60
2023-04-13T08:22:22.597Z,9.60
2023-04-13T08:24:49.201Z,9.70
2023-04-13T08:27:15.807Z,9.80
2023-04-13T08:29:42.412Z,9.80
2023-04-13T08:32:09.087Z,9.90
2023-04-13T08:34:36.709Z,9.90
2023-04-13T08:37:03.367Z,9.90
2023-04-13T08:39:30.008Z,9.90
2023-04-13T08:41:56.792Z,9.90
2023-04-13T08:44:23.835Z,10.00
2023-04-13T08:46:53.007Z,10.00
2023-04-13T08:49:20.059Z,10.00
2023-04-13T08:51:47.920Z,10.10
2023-04-13T08:54:16.386Z,10.40
2023-04-13T08:56:46.910Z,11.30
2023-04-13T08:59:15.896Z,10.60
2023-04-13T09:01:45.148Z,10.60
2023-04-13T09:04:14.134Z,10.50
2023-04-13T09:06:44.704Z,10.50
2023-04-13T09:09:16.982Z,10.30
2023-04-13T09:11:45.713Z,10.30
2023-04-13T09:14:12.640Z,10.20
2023-04-13T09:16:41.189Z,10.10
2023-04-13T09:19:08.609Z,10.20
2023-04-13T09:21:45.233Z,10.30
2023-04-13T09:24:12.780Z,10.50
2023-04-13T09:26:47.214Z,10.70
2023-04-13T09:29:19.193Z,11.00
2023-04-13T09:31:47.382Z,11.20
2023-04-13T09:34:25.307Z,11.00
2023-04-13T09:36:54.715Z,11.20
2023-04-13T09:39:29.462Z,10.90
2023-04-13T09:41:56.680Z,11.20
2023-04-13T09:44:24.552Z,11.10
2023-04-13T09:46:59.248Z,11.10
2023-04-13T09:49:26.638Z,11.20
2023-04-13T09:51:54.911Z,11.40
2023-04-13T09:54:22.720Z,11.50
2023-04-13T09:56:55.575Z,13.60
2023-04-13T09:59:26.049Z,11.50
2023-04-13T10:01:54.040Z,11.50
2023-04-13T10:04:21.033Z,11.50
2023-04-13T10:06:48.278Z,11.60
2023-04-13T10:09:15.729Z,11.60
2023-04-13T10:11:46.429Z,11.60
2023-04-13T10:14:36.003Z,11.40
2023-04-13T10:17:17.411Z,11.50
2023-04-13T10:19:48.090Z,11.40
2023-04-13T10:22:16.743Z,11.30
2023-04-13T10:24:44.547Z,11.60
2023-04-13T10:27:20.619Z,11.30
2023-04-13T10:29:47.957Z,11.30
2023-04-13T10:32:23.512Z,11.30
2023-04-13T10:34:51.241Z,11.20
2023-04-13T10:37:27.355Z,11.10
2023-04-13T10:40:08.035Z,10.80
2023-04-13T10:45:20.303Z,10.60
2023-04-13T10:47:47.414Z,10.60
2023-04-13T10:50:22.445Z,10.90
2023-04-13T10:52:57.169Z,11.20
2023-04-13T10:55:25.892Z,11.50
2023-04-13T10:57:54.617Z,11.50
2023-04-13T11:00:27.288Z,11.60
2023-04-13T11:03:00.138Z,11.40
2023-04-13T11:05:27.297Z,11.60
2023-04-13T11:07:55.860Z,11.80
2023-04-13T11:10:27.240Z,11.80
2023-04-13T11:12:56.270Z,11.70
2023-04-13T11:18:11.099Z,11.30
2023-04-13T11:20:40.659Z,10.80
2023-04-13T11:23:18.550Z,10.80
2023-04-13T11:26:01.995Z,11.10
2023-04-13T11:28:42.528Z,11.50
2023-04-13T11:31:11.318Z,11.40
2023-04-13T11:33:40.235Z,11.50
2023-04-13T11:36:08.054Z,11.70
2023-04-13T11:38:34.850Z,11.80
2023-04-13T11:41:14.923Z,11.90
2023-04-13T11:43:46.236Z,12.10
2023-04-13T11:46:15.338Z,12.30
2023-04-13T11:48:43.395Z,12.20
2023-04-13T11:51:11.296Z,12.10
2023-04-13T11:53:39.499Z,11.90
2023-04-13T11:56:06.838Z,11.70
2023-04-13T11:58:33.667Z,11.60
2023-04-13T12:01:12.752Z,11.60
2023-04-13T12:03:57.064Z,11.70
2023-04-13T12:06:29.057Z,11.70
2023-04-13T12:09:09.360Z,11.80
2023-04-13T12:11:42.350Z,12.00
2023-04-13T12:17:06.329Z,12.30
2023-04-13T12:19:41.301Z,12.50
2023-04-13T12:22:09.961Z,12.70
2023-04-13T12:24:39.898Z,12.80
2023-04-13T12:29:39.981Z,12.80
2023-04-13T12:32:17.041Z,13.10
2023-04-13T12:34:44.739Z,13.20
2023-04-13T12:37:12.095Z,13.20
2023-04-13T12:39:38.902Z,13.40
2023-04-13T12:42:05.707Z,13.40
2023-04-13T12:44:33.987Z,13.50
2023-04-13T12:47:01.007Z,13.50
2023-04-13T12:49:27.719Z,13.20
2023-04-13T12:51:54.387Z,13.20
2023-04-13T12:54:21.077Z,13.20
2023-04-13T12:56:47.701Z,13.30
2023-04-13T12:59:14.320Z,13.40
2023-04-13T13:01:40.924Z,13.50
2023-04-13T13:04:07.672Z,13.30
2023-04-13T13:06:34.514Z,13.40
2023-04-13T13:09:01.443Z,13.80
2023-04-13T13:11:28.441Z,13.60
2023-04-13T13:13:55.195Z,13.50
2023-04-13T13:16:22.063Z,13.30
2023-04-13T13:18:51.232Z,13.30
2023-04-13T13:21:19.238Z,13.60
2023-04-13T13:23:46.269Z,13.70
2023-04-13T13:26:23.869Z,13.70
2023-04-13T13:28:52.028Z,13.70
2023-04-13T13:31:19.826Z,13.70
2023-04-13T13:33:46.741Z,13.70
2023-04-13T13:36:14.223Z,13.80
2023-04-13T13:38:42.611Z,14.00
2023-04-13T13:41:09.299Z,14.20
2023-04-13T13:43:35.972Z,14.50
2023-04-13T13:46:02.674Z,14.50
2023-04-13T13:48:29.283Z,14.40
2023-04-13T13:50:56.059Z,14.20
2023-04-13T13:53:23.487Z,14.20
2023-04-13T13:55:50.883Z,16.30
2023-04-13T13:58:17.516Z,14.00
2023-04-13T14:00:44.798Z,13.80
2023-04-13T14:03:13.645Z,13.70
2023-04-13T14:05:40.434Z,13.70
2023-04-13T14:08:07.089Z,13.60
2023-04-13T14:10:35.364Z,13.60
2023-04-13T14:13:02.254Z,13.60
2023-04-13T14:15:29.016Z,13.50
2023-04-13T14:18:08.886Z,13.50
2023-04-13T14:20:38.853Z,13.40
2023-04-13T14:23:06.146Z,13.30
2023-04-13T14:25:32.765Z,12.80
2023-04-13T14:27:59.342Z,12.20
2023-04-13T14:30:27.932Z,11.80
2023-04-13T14:32:55.117Z,11.70
2023-04-13T14:35:21.902Z,11.70
2023-04-13T14:37:48.587Z,11.60
2023-04-13T14:40:17.124Z,11.70
2023-04-13T14:42:44.287Z,11.70
2023-04-13T14:45:12.312Z,11.80
2023-04-13T14:47:40.100Z,11.70
2023-04-13T14:50:08.307Z,11.80
2023-04-13T14:52:35.078Z,12.10
2023-04-13T14:55:02.259Z,12.40
2023-04-13T14:57:29.018Z,12.50
2023-04-13T14:59:56.554Z,12.40
2023-04-13T15:02:24.122Z,12.50
2023-04-13T15:04:51.055Z,12.80
2023-04-13T15:07:18.875Z,13.00
2023-04-13T15:09:45.616Z,13.20
2023-04-13T15:12:13.651Z,13.30
2023-04-13T15:14:40.858Z,13.40
2023-04-13T15:17:08.420Z,13.30
2023-04-13T15:19:35.038Z,13.20
2023-04-13T15:22:01.698Z,13.20
2023-04-13T15:24:28.358Z,13.40
2023-04-13T15:26:55.301Z,13.50
2023-04-13T15:29:21.959Z,13.60
2023-04-13T15:31:48.948Z,13.50
2023-04-13T15:34:16.482Z,13.50
2023-04-13T15:36:43.145Z,13.50
2023-04-13T15:39:09.755Z,13.50
2023-04-13T15:41:36.411Z,13.50
2023-04-13T15:44:03.339Z,13.50
2023-04-13T15:46:30.285Z,13.40
2023-04-13T15:48:57.517Z,13.20
2023-04-13T15:51:24.364Z,13.40
2023-04-13T15:53:50.977Z,13.50
2023-04-13T15:56:18.534Z,13.50
2023-04-13T15:58:45.239Z,13.40
2023-04-13T16:01:13.017Z,13.30
2023-04-13T16:03:40.973Z,13.30
2023-04-13T16:06:08.610Z,13.60
2023-04-13T16:08:35.253Z,13.60
2023-04-13T16:11:01.881Z,13.70
2023-04-13T16:13:46.821Z,13.90
2023-04-13T16:16:14.762Z,13.90
2023-04-13T16:18:41.923Z,13.90
2023-04-13T16:21:08.669Z,13.80
2023-04-13T16:23:35.642Z,13.60
2023-04-13T16:26:02.448Z,13.40
2023-04-13T16:28:29.814Z,13.40
2023-04-13T16:30:56.742Z,13.20
2023-04-13T16:33:23.558Z,13.20
2023-04-13T16:35:51.284Z,13.10
2023-04-13T16:38:17.933Z,13.10
2023-04-13T16:40:44.528Z,13.00
2023-04-13T16:43:11.182Z,12.80
2023-04-13T16:45:38.013Z,12.40
2023-04-13T16:48:05.468Z,13.50
2023-04-13T16:50:32.519Z,11.50
2023-04-13T16:52:59.615Z,11.10
2023-04-13T16:55:28.413Z,11.00
2023-04-13T16:57:55.678Z,10.90
2023-04-13T17:00:23.279Z,10.80
2023-04-13T17:02:50.129Z,10.50
2023-04-13T17:05:17.237Z,10.50
2023-04-13T17:07:46.719Z,10.40
2023-04-13T17:10:14.426Z,10.50
2023-04-13T17:12:41.305Z,10.70
2023-04-13T17:15:09.459Z,10.70
2023-04-13T17:17:37.992Z,10.80
2023-04-13T17:20:05.983Z,10.90
2023-04-13T17:22:32.749Z,11.00
2023-04-13T17:24:59.603Z,11.10
2023-04-13T17:27:26.271Z,11.10
2023-04-13T17:29:53.063Z,11.20
2023-04-13T17:32:21.822Z,11.20
2023-04-13T17:34:49.474Z,11.20
2023-04-13T17:37:17.413Z,11.30
2023-04-13T17:39:47.446Z,11.30
2023-04-13T17:42:15.124Z,11.20
2023-04-13T17:44:42.268Z,11.20
2023-04-13T17:47:09.279Z,11.20
2023-04-13T17:49:36.321Z,11.10
2023-04-13T17:52:03.095Z,11.10
2023-04-13T17:54:30.417Z,11.10
2023-04-13T17:56:57.053Z,11.00
2023-04-13T17:59:23.688Z,11.00
2023-04-13T18:01:54.263Z,11.20
2023-04-13T18:04:21.431Z,11.30
2023-04-13T18:06:48.663Z,11.30
2023-04-13T18:09:15.719Z,11.40
2023-04-13T18:11:42.358Z,11.40
2023-04-13T18:14:12.040Z,11.30
2023-04-13T18:16:38.966Z,11.30
2023-04-13T18:19:05.811Z,11.40
2023-04-13T18:21:32.502Z,11.40
2023-04-13T18:24:01.707Z,11.50
2023-04-13T18:26:29.037Z,11.40
2023-04-13T18:28:55.717Z,11.30
2023-04-13T18:31:22.795Z,11.30
2023-04-13T18:33:49.514Z,11.30
2023-04-13T18:36:17.309Z,11.30
2023-04-13T18:38:44.727Z,11.30
2023-04-13T18:41:12.096Z,11.30
2023-04-13T18:43:39.449Z,11.20
2023-04-13T18:46:06.417Z,11.20
2023-04-13T18:48:33.202Z,11.30
2023-04-13T18:51:00.588Z,11.30
2023-04-13T18:53:28.369Z,11.30
2023-04-13T18:55:55.181Z,11.20
2023-04-13T18:58:21.909Z,11.20
2023-04-13T19:00:48.578Z,11.20
2023-04-13T19:03:15.419Z,11.20
2023-04-13T19:05:42.296Z,11.00
2023-04-13T19:08:12.870Z,11.00
2023-04-13T19:10:39.511Z,11.10
2023-04-13T19:13:06.236Z,11.20
2023-04-13T19:15:33.095Z,11.20
2023-04-13T19:18:01.225Z,11.20
2023-04-13T19:20:27.977Z,11.30
2023-04-13T19:22:54.592Z,11.30
2023-04-13T19:25:21.587Z,11.30
2023-04-13T19:27:48.474Z,11.30
2023-04-13T19:30:16.966Z,12.50
2023-04-13T19:32:45.517Z,11.20
2023-04-13T19:35:12.995Z,11.20
2023-04-13T19:37:40.103Z,11.10
2023-04-13T19:40:13.129Z,11.20
2023-04-13T19:42:43.877Z,11.20
2023-04-13T19:45:11.940Z,11.20
2023-04-13T19:47:39.746Z,11.20
2023-04-13T19:50:09.167Z,11.20
2023-04-13T19:52:36.088Z,11.20
2023-04-13T19:55:02.856Z,11.10
2023-04-13T19:57:30.232Z,10.90
2023-04-13T19:59:57.591Z,10.80
2023-04-13T20:02:24.644Z,10.80
2023-04-13T20:04:52.060Z,10.70
2023-04-13T20:07:18.814Z,10.60
2023-04-13T20:09:45.613Z,10.50
2023-04-13T20:12:12.667Z,10.50
2023-04-13T20:14:41.908Z,10.50
2023-04-13T20:17:09.373Z,10.40
2023-04-13T20:19:36.391Z,10.40
2023-04-13T20:22:04.440Z,10.40
2023-04-13T20:24:31.707Z,10.30
2023-04-13T20:26:58.877Z,10.30
2023-04-13T20:29:27.282Z,10.30
2023-04-13T20:31:54.809Z,10.30
2023-04-13T20:34:22.033Z,10.30
2023-04-13T20:36:48.919Z,10.30
2023-04-13T20:39:18.422Z,10.30
2023-04-13T20:41:55.181Z,10.30
2023-04-13T20:44:25.617Z,10.30
2023-04-13T20:46:55.314Z,10.20
2023-04-13T20:49:23.461Z,10.20
2023-04-13T20:51:55.848Z,10.20
2023-04-13T20:54:23.571Z,10.20
2023-04-13T20:56:50.341Z,10.10
2023-04-13T20:59:17.870Z,10.10
2023-04-13T21:01:44.544Z,10.10
2023-04-13T21:04:11.612Z,10.10
2023-04-13T21:06:38.356Z,10.00
2023-04-13T21:09:05.654Z,8.40
2023-04-13T21:11:32.285Z,10.10
2023-04-13T21:13:59.015Z,10.00
2023-04-13T21:16:26.441Z,10.00
2023-04-13T21:18:54.117Z,10.10
2023-04-13T21:21:23.427Z,10.40
2023-04-13T21:23:51.061Z,10.20
2023-04-13T21:26:17.881Z,10.20
2023-04-13T21:28:44.567Z,10.10
2023-04-13T21:31:11.168Z,10.00
2023-04-13T21:33:37.834Z,9.90
2023-04-13T21:38:41.540Z,9.80
2023-04-13T21:41:19.238Z,9.80
2023-04-13T21:43:46.156Z,9.70
2023-04-13T21:46:14.192Z,9.70
2023-04-13T21:48:41.309Z,9.70
2023-04-13T21:51:09.176Z,9.60
2023-04-13T21:53:36.839Z,9.60
2023-04-13T21:56:04.132Z,9.60
2023-04-13T21:58:40.874Z,9.60
2023-04-13T22:01:08.291Z,9.60
2023-04-13T22:03:39.874Z,9.60
2023-04-13T22:06:08.652Z,9.50
2023-04-13T22:08:35.530Z,9.60
2023-04-13T22:11:02.797Z,9.50
2023-04-13T22:13:29.832Z,9.50
2023-04-13T22:15:56.836Z,9.50
2023-04-13T22:18:23.595Z,9.50
2023-04-13T22:20:50.565Z,9.60
2023-04-13T22:23:17.222Z,9.60
2023-04-13T22:25:58.597Z,9.60
2023-04-13T22:28:26.201Z,9.50
2023-04-13T22:30:53.053Z,9.40
2023-04-13T22:33:20.412Z,7.90
2023-04-13T22:35:50.623Z,9.40
2023-04-13T22:38:17.993Z,9.40
2023-04-13T22:40:45.106Z,9.40
2023-04-13T22:43:11.754Z,9.30
2023-04-13T22:45:38.442Z,9.40
2023-04-13T22:48:05.529Z,9.30
2023-04-13T22:50:32.202Z,9.30
2023-04-13T22:52:58.804Z,9.30
2023-04-13T22:55:25.417Z,9.20
2023-04-13T22:57:52.034Z,9.20
2023-04-13T23:00:20.753Z,9.20
2023-04-13T23:02:52.875Z,9.20
2023-04-13T23:05:19.754Z,9.20
2023-04-13T23:07:46.384Z,9.10
2023-04-13T23:10:13.902Z,9.10
2023-04-13T23:12:41.850Z,9.10
2023-04-13T23:15:08.853Z,9.60
2023-04-13T23:17:35.622Z,9.10
2023-04-13T23:20:06.914Z,10.00
2023-04-13T23:22:33.730Z,9.10
2023-04-13T23:25:00.723Z,9.10
2023-04-13T23:27:27.358Z,9.10
2023-04-13T23:29:54.089Z,9.10
2023-04-13T23:32:21.238Z,9.00
2023-04-13T23:34:47.913Z,9.00
2023-04-13T23:37:14.530Z,9.00
2023-04-13T23:39:41.377Z,8.90
2023-04-13T23:42:08.539Z,8.90
2023-04-13T23:44:35.282Z,9.00
2023-04-13T23:47:02.412Z,8.80
2023-04-13T23:49:29.081Z,8.80
2023-04-13T23:51:56.134Z,8.80
2023-04-13T23:54:22.789Z,8.80
2023-04-13T23:56:49.434Z,8.80
2023-04-13T23:59:16.378Z,8.80
